createdAt,value
2018-04-26T00:01:14.829Z,3.70
2018-04-26T00:03:44.935Z,3.50
2018-04-26T00:06:14.489Z,3.70
2018-04-26T00:08:43.730Z,4.30
2018-04-26T00:11:13.033Z,3.50
2018-04-26T00:13:43.348Z,3.30
2018-04-26T00:16:14.209Z,3.70
2018-04-26T00:18:44.174Z,3.67
2018-04-26T00:21:13.496Z,3.37
2018-04-26T00:23:43.031Z,4.03
2018-04-26T00:26:12.326Z,3.93
2018-04-26T00:28:42.529Z,4.10
2018-04-26T00:31:11.697Z,3.97
2018-04-26T00:33:40.792Z,4.13
2018-04-26T00:36:10.215Z,3.43
2018-04-26T00:38:39.821Z,4.03
2018-04-26T00:41:09.850Z,4.30
2018-04-26T00:43:39.888Z,3.60
2018-04-26T00:46:08.970Z,4.13
2018-04-26T00:48:38.218Z,4.90
2018-04-26T00:51:07.395Z,4.07
2018-04-26T00:53:36.515Z,3.70
2018-04-26T00:56:06.249Z,3.43
2018-04-26T00:58:35.916Z,4.00
2018-04-26T01:01:05.334Z,4.17
2018-04-26T01:03:34.590Z,3.97
2018-04-26T01:06:05.138Z,3.90
2018-04-26T01:08:34.404Z,4.10
2018-04-26T01:11:04.520Z,3.90
2018-04-26T01:13:40.073Z,3.27
2018-04-26T01:16:09.533Z,3.80
2018-04-26T01:18:41.673Z,3.63
2018-04-26T01:21:11.124Z,3.40
2018-04-26T01:23:40.682Z,4.07
2018-04-26T01:26:09.955Z,3.80
2018-04-26T01:28:39.422Z,4.93
2018-04-26T01:31:08.696Z,3.80
2018-04-26T01:33:37.961Z,3.27
2018-04-26T01:36:07.052Z,3.73
2018-04-26T01:38:36.294Z,3.57
2018-04-26T01:41:05.600Z,3.87
2018-04-26T01:43:34.908Z,3.47
2018-04-26T01:46:05.601Z,3.50
2018-04-26T01:48:34.918Z,3.50
2018-04-26T01:51:04.196Z,3.50
2018-04-26T01:53:33.938Z,3.63
2018-04-26T01:56:03.253Z,3.67
2018-04-26T01:58:32.577Z,3.43
2018-04-26T02:01:02.431Z,3.67
2018-04-26T02:03:31.991Z,3.97
2018-04-26T02:06:01.301Z,3.93
2018-04-26T02:08:30.594Z,4.33
2018-04-26T02:10:59.877Z,3.50
2018-04-26T02:13:30.495Z,3.60
2018-04-26T02:16:00.629Z,3.70
2018-04-26T02:18:31.645Z,4.23
2018-04-26T02:21:02.082Z,3.97
2018-04-26T02:23:33.218Z,3.77
2018-04-26T02:26:02.816Z,3.50
2018-04-26T02:28:32.106Z,4.60
2018-04-26T02:31:01.251Z,4.17
2018-04-26T02:33:31.273Z,3.90
2018-04-26T02:36:00.384Z,4.23
2018-04-26T02:38:29.629Z,3.90
2018-04-26T02:40:58.959Z,4.87
2018-04-26T02:43:28.865Z,4.10
2018-04-26T02:45:58.577Z,4.10
2018-04-26T02:48:28.059Z,4.17
2018-04-26T02:50:58.795Z,4.40
2018-04-26T02:53:28.692Z,4.30
2018-04-26T02:55:57.985Z,4.60
2018-04-26T02:58:27.471Z,29.47
2018-04-26T03:00:56.802Z,57.07
2018-04-26T03:03:26.527Z,26.73
2018-04-26T03:05:55.778Z,42.60
2018-04-26T03:08:25.558Z,27.30
2018-04-26T03:10:55.252Z,21.37
2018-04-26T03:13:25.169Z,11.00
2018-04-26T03:15:54.297Z,10.87
2018-04-26T03:18:23.520Z,9.47
2018-04-26T03:20:52.858Z,21.93
2018-04-26T03:23:24.159Z,7.67
2018-04-26T03:25:54.112Z,5.63
2018-04-26T03:28:24.052Z,5.60
2018-04-26T03:30:54.445Z,7.87
2018-04-26T03:33:24.521Z,8.70
2018-04-26T03:35:53.626Z,9.27
2018-04-26T03:38:22.856Z,11.10
2018-04-26T03:40:52.156Z,19.23
2018-04-26T03:43:23.317Z,10.33
2018-04-26T03:45:52.599Z,9.10
2018-04-26T03:48:21.721Z,7.83
2018-04-26T03:50:51.248Z,7.80
2018-04-26T03:53:20.834Z,7.00
2018-04-26T03:55:50.373Z,8.53
2018-04-26T03:58:19.581Z,8.50
2018-04-26T04:00:59.976Z,7.60
2018-04-26T04:03:41.240Z,7.90
2018-04-26T04:06:16.273Z,6.50
2018-04-26T04:08:45.798Z,6.47
2018-04-26T04:11:15.871Z,6.93
2018-04-26T04:13:45.310Z,7.33
2018-04-26T04:16:15.648Z,6.67
2018-04-26T04:18:45.655Z,6.00
2018-04-26T04:21:14.944Z,6.00
2018-04-26T04:23:45.611Z,5.97
2018-04-26T04:26:14.667Z,6.17
2018-04-26T04:28:43.846Z,6.00
2018-04-26T04:31:13.167Z,5.60
2018-04-26T04:33:42.586Z,7.03
2018-04-26T04:36:12.058Z,6.23
2018-04-26T04:38:41.396Z,5.87
2018-04-26T04:41:10.881Z,5.67
2018-04-26T04:43:40.197Z,6.07
2018-04-26T04:46:09.709Z,6.60
2018-04-26T04:48:39.249Z,5.83
2018-04-26T04:51:08.703Z,6.33
2018-04-26T04:53:38.609Z,8.70
2018-04-26T04:56:08.732Z,7.90
2018-04-26T04:58:38.842Z,8.60
2018-04-26T05:01:08.358Z,9.57
2018-04-26T05:03:38.081Z,5.33
2018-04-26T05:06:07.565Z,6.17
2018-04-26T05:08:36.890Z,6.60
2018-04-26T05:11:06.122Z,5.70
2018-04-26T05:13:35.483Z,5.90
2018-04-26T05:16:04.767Z,6.00
2018-04-26T05:18:34.206Z,6.30
2018-04-26T05:21:03.378Z,5.87
2018-04-26T05:23:32.659Z,5.93
2018-04-26T05:26:03.192Z,6.40
2018-04-26T05:28:32.704Z,5.70
2018-04-26T05:31:01.801Z,5.83
2018-04-26T05:33:30.855Z,5.90
2018-04-26T05:36:00.140Z,5.70
2018-04-26T05:38:29.506Z,7.30
2018-04-26T05:40:58.775Z,6.17
2018-04-26T05:43:28.994Z,7.00
2018-04-26T05:45:58.456Z,6.60
2018-04-26T05:48:28.628Z,6.53
2018-04-26T05:50:58.120Z,6.00
2018-04-26T05:53:27.428Z,6.73
2018-04-26T05:55:57.157Z,6.67
2018-04-26T05:58:27.476Z,6.20
2018-04-26T06:00:56.775Z,5.83
2018-04-26T06:03:26.035Z,6.50
2018-04-26T06:05:55.354Z,5.63
2018-04-26T06:08:25.573Z,6.23
2018-04-26T06:10:54.661Z,5.63
2018-04-26T06:13:26.219Z,6.00
2018-04-26T06:15:56.564Z,6.20
2018-04-26T06:18:25.943Z,5.80
2018-04-26T06:20:55.941Z,5.80
2018-04-26T06:23:25.022Z,5.37
2018-04-26T06:25:54.252Z,5.53
2018-04-26T06:28:25.769Z,5.93
2018-04-26T06:30:55.101Z,6.63
2018-04-26T06:33:24.396Z,5.80
2018-04-26T06:35:54.138Z,6.43
2018-04-26T06:38:23.414Z,5.40
2018-04-26T06:40:52.694Z,6.30
2018-04-26T06:43:22.426Z,5.40
2018-04-26T06:45:51.708Z,5.93
2018-04-26T06:48:20.769Z,6.07
2018-04-26T06:50:50.096Z,5.67
2018-04-26T06:53:19.509Z,6.63
2018-04-26T06:55:48.832Z,6.70
2018-04-26T06:58:18.823Z,5.53
2018-04-26T07:00:49.006Z,5.87
2018-04-26T07:03:18.578Z,6.00
2018-04-26T07:05:48.301Z,6.87
2018-04-26T07:08:17.942Z,5.80
2018-04-26T07:10:47.366Z,4.80
2018-04-26T07:13:16.492Z,5.37
2018-04-26T07:15:45.996Z,5.90
2018-04-26T07:18:15.346Z,5.33
2018-04-26T07:20:44.608Z,5.97
2018-04-26T07:23:13.979Z,5.67
2018-04-26T07:25:43.373Z,5.60
2018-04-26T07:28:12.698Z,5.63
2018-04-26T07:30:43.178Z,5.30
2018-04-26T07:33:12.716Z,5.30
2018-04-26T07:35:42.037Z,5.27
2018-04-26T07:38:11.218Z,4.80
2018-04-26T07:40:40.483Z,6.23
2018-04-26T07:43:09.793Z,5.00
2018-04-26T07:45:39.095Z,5.77
2018-04-26T07:48:08.463Z,6.33
2018-04-26T07:50:37.837Z,7.17
2018-04-26T07:53:06.926Z,6.07
2018-04-26T07:55:35.972Z,6.23
2018-04-26T07:58:05.515Z,5.40
2018-04-26T08:00:34.976Z,5.07
2018-04-26T08:03:04.387Z,5.43
2018-04-26T08:05:33.726Z,5.60
2018-04-26T08:08:03.269Z,5.43
2018-04-26T08:10:32.394Z,5.70
2018-04-26T08:13:01.838Z,6.17
2018-04-26T08:15:31.041Z,5.90
2018-04-26T08:18:00.409Z,6.07
2018-04-26T08:20:29.790Z,5.63
2018-04-26T08:22:59.049Z,5.50
2018-04-26T08:25:28.465Z,5.37
2018-04-26T08:27:58.209Z,6.00
2018-04-26T08:30:27.310Z,5.83
2018-04-26T08:32:58.859Z,5.17
2018-04-26T08:35:28.157Z,5.70
2018-04-26T08:37:57.447Z,6.20
2018-04-26T08:40:27.192Z,5.70
2018-04-26T08:42:56.652Z,5.73
2018-04-26T08:45:25.828Z,6.00
2018-04-26T08:47:55.351Z,5.90
2018-04-26T08:50:24.854Z,5.03
2018-04-26T08:52:53.946Z,5.80
2018-04-26T08:55:23.298Z,5.60
2018-04-26T08:57:52.743Z,5.50
2018-04-26T09:00:22.033Z,6.70
2018-04-26T09:02:51.589Z,5.90
2018-04-26T09:05:20.648Z,4.83
2018-04-26T09:07:50.163Z,5.80
2018-04-26T09:10:19.461Z,6.07
2018-04-26T09:12:48.752Z,5.73
2018-04-26T09:15:18.483Z,5.80
2018-04-26T09:17:47.727Z,6.13
2018-04-26T09:20:17.442Z,5.00
2018-04-26T09:22:47.301Z,5.17
2018-04-26T09:25:16.614Z,5.00
2018-04-26T09:27:46.093Z,6.67
2018-04-26T09:30:15.409Z,5.63
2018-04-26T09:32:44.897Z,5.23
2018-04-26T09:35:15.201Z,6.47
2018-04-26T09:37:44.321Z,5.73
2018-04-26T09:40:14.848Z,5.93
2018-04-26T09:42:44.128Z,6.20
2018-04-26T09:45:13.483Z,6.17
2018-04-26T09:47:44.557Z,6.37
2018-04-26T09:50:14.060Z,6.40
2018-04-26T09:52:43.559Z,6.23
2018-04-26T09:55:12.972Z,7.00
2018-04-26T09:57:42.403Z,6.30
2018-04-26T10:00:12.096Z,6.30
2018-04-26T10:02:47.411Z,7.00
2018-04-26T10:05:17.352Z,5.97
2018-04-26T10:07:46.666Z,6.43
2018-04-26T10:10:16.243Z,5.33
2018-04-26T10:12:45.286Z,6.10
2018-04-26T10:15:15.548Z,6.77
2018-04-26T10:17:44.867Z,6.77
2018-04-26T10:20:14.212Z,6.10
2018-04-26T10:22:43.876Z,5.90
2018-04-26T10:25:13.204Z,6.43
2018-04-26T10:27:43.320Z,6.70
2018-04-26T10:30:12.596Z,6.83
2018-04-26T10:32:42.326Z,7.73
2018-04-26T10:35:11.642Z,6.47
2018-04-26T10:37:41.700Z,6.70
2018-04-26T10:40:10.874Z,6.33
2018-04-26T10:42:39.958Z,5.53
2018-04-26T10:45:09.796Z,7.00
2018-04-26T10:47:39.073Z,5.67
2018-04-26T10:50:08.356Z,7.57
2018-04-26T10:52:37.659Z,5.50
2018-04-26T10:55:07.677Z,5.70
2018-04-26T10:57:37.025Z,5.90
2018-04-26T11:00:06.249Z,6.77
2018-04-26T11:02:36.386Z,5.90
2018-04-26T11:05:05.654Z,6.63
2018-04-26T11:07:34.950Z,6.23
2018-04-26T11:10:04.380Z,7.47
2018-04-26T11:12:34.381Z,6.27
2018-04-26T11:15:03.699Z,7.00
2018-04-26T11:17:33.026Z,7.07
2018-04-26T11:20:02.071Z,6.47
2018-04-26T11:22:32.023Z,6.90
2018-04-26T11:25:01.307Z,6.93
2018-04-26T11:27:30.802Z,6.40
2018-04-26T11:30:00.081Z,8.40
2018-04-26T11:32:29.413Z,7.63
2018-04-26T11:34:58.891Z,7.60
2018-04-26T11:37:28.422Z,7.23
2018-04-26T11:39:59.668Z,7.90
2018-04-26T11:42:28.904Z,7.47
2018-04-26T11:44:58.218Z,9.90
2018-04-26T11:47:28.354Z,8.50
2018-04-26T11:49:57.872Z,8.23
2018-04-26T11:52:27.013Z,9.00
2018-04-26T11:54:56.257Z,9.43
2018-04-26T11:57:25.552Z,9.50
2018-04-26T11:59:54.729Z,8.60
2018-04-26T12:02:23.797Z,9.00
2018-04-26T12:04:53.270Z,8.47
2018-04-26T12:07:22.590Z,9.00
2018-04-26T12:09:52.063Z,9.10
2018-04-26T12:12:23.009Z,8.57
2018-04-26T12:14:52.859Z,9.27
2018-04-26T12:17:22.338Z,9.10
2018-04-26T12:19:51.849Z,8.53
2018-04-26T12:22:21.155Z,9.20
2018-04-26T12:24:50.653Z,9.80
2018-04-26T12:27:19.896Z,9.90
2018-04-26T12:29:49.045Z,9.57
2018-04-26T12:32:18.090Z,8.47
2018-04-26T12:34:48.196Z,8.23
2018-04-26T12:37:17.548Z,8.50
2018-04-26T12:39:47.734Z,8.97
2018-04-26T12:42:18.264Z,9.20
2018-04-26T12:44:47.386Z,8.60
2018-04-26T12:47:16.464Z,9.10
2018-04-26T12:49:46.242Z,8.90
2018-04-26T12:52:15.780Z,8.77
2018-04-26T12:54:45.077Z,8.60
2018-04-26T12:57:14.619Z,9.50
2018-04-26T12:59:44.280Z,9.17
2018-04-26T13:02:13.564Z,8.00
2018-04-26T13:04:42.893Z,8.90
2018-04-26T13:07:12.186Z,9.00
2018-04-26T13:09:41.288Z,8.67
2018-04-26T13:12:11.611Z,8.63
2018-04-26T13:14:40.876Z,8.70
2018-04-26T13:17:10.216Z,9.30
2018-04-26T13:19:39.463Z,9.57
2018-04-26T13:22:08.936Z,8.67
2018-04-26T13:24:38.894Z,9.73
2018-04-26T13:27:08.245Z,9.03
2018-04-26T13:29:37.521Z,9.30
2018-04-26T13:32:07.037Z,9.43
2018-04-26T13:34:37.148Z,8.70
2018-04-26T13:37:06.483Z,6.93
2018-04-26T13:39:35.974Z,8.33
2018-04-26T13:42:05.460Z,8.87
2018-04-26T13:44:36.172Z,8.10
2018-04-26T13:47:05.253Z,8.13
2018-04-26T13:49:35.611Z,8.43
2018-04-26T13:52:05.029Z,8.00
2018-04-26T13:54:34.378Z,7.90
2018-04-26T13:57:03.711Z,8.20
2018-04-26T13:59:32.837Z,7.20
2018-04-26T14:02:02.080Z,8.40
2018-04-26T14:04:31.410Z,7.77
2018-04-26T14:07:00.752Z,7.47
2018-04-26T14:09:29.997Z,7.57
2018-04-26T14:11:59.952Z,7.60
2018-04-26T14:14:29.363Z,8.07
2018-04-26T14:16:58.934Z,7.90
2018-04-26T14:19:28.330Z,7.93
2018-04-26T14:21:58.362Z,7.30
2018-04-26T14:24:29.532Z,7.77
2018-04-26T14:26:59.504Z,6.63
2018-04-26T14:29:28.709Z,7.30
2018-04-26T14:32:03.875Z,6.97
2018-04-26T14:34:33.236Z,7.63
2018-04-26T14:37:02.547Z,8.50
2018-04-26T14:39:32.248Z,7.23
2018-04-26T14:42:01.307Z,7.70
2018-04-26T14:44:30.606Z,7.40
2018-04-26T14:47:12.863Z,7.00
2018-04-26T14:49:42.384Z,7.27
2018-04-26T14:52:11.651Z,6.50
2018-04-26T14:54:41.657Z,7.20
2018-04-26T14:57:11.168Z,6.83
2018-04-26T14:59:41.867Z,5.63
2018-04-26T15:02:11.208Z,6.67
2018-04-26T15:04:41.001Z,7.20
2018-04-26T15:07:10.326Z,6.83
2018-04-26T15:09:40.246Z,5.67
2018-04-26T15:12:09.912Z,6.53
2018-04-26T15:14:39.203Z,6.80
2018-04-26T15:17:08.727Z,6.87
2018-04-26T15:19:38.010Z,7.47
2018-04-26T15:22:07.101Z,6.30
2018-04-26T15:24:36.441Z,5.50
2018-04-26T15:27:05.697Z,6.20
2018-04-26T15:29:35.011Z,5.33
2018-04-26T15:32:04.435Z,6.00
2018-04-26T15:34:33.766Z,5.57
2018-04-26T15:37:03.235Z,5.13
2018-04-26T15:39:32.318Z,5.17
2018-04-26T15:42:02.683Z,5.53
2018-04-26T15:44:32.141Z,6.27
2018-04-26T15:47:01.481Z,5.93
2018-04-26T15:49:32.735Z,6.00
2018-04-26T15:52:02.332Z,6.70
2018-04-26T15:54:37.699Z,4.40
2018-04-26T15:57:38.012Z,4.47
2018-04-26T16:00:24.502Z,4.20
2018-04-26T16:03:19.212Z,4.70
2018-04-26T16:05:59.976Z,4.33
2018-04-26T16:08:54.233Z,5.30
2018-04-26T16:11:35.601Z,4.93
2018-04-26T16:14:17.002Z,4.23
2018-04-26T16:20:19.473Z,4.47
2018-04-26T16:23:06.012Z,4.03
2018-04-26T16:25:57.869Z,4.70
2018-04-26T16:28:44.318Z,4.73
2018-04-26T16:31:31.635Z,4.70
2018-04-26T16:34:12.225Z,4.60
2018-04-26T16:36:53.732Z,4.60
2018-04-26T16:39:23.264Z,4.27
2018-04-26T16:41:52.803Z,4.40
2018-04-26T16:44:21.947Z,4.00
2018-04-26T16:46:51.429Z,3.90
2018-04-26T16:49:20.481Z,4.47
2018-04-26T16:51:52.453Z,5.70
2018-04-26T16:54:21.760Z,4.50
2018-04-26T16:56:53.004Z,5.20
2018-04-26T16:59:22.421Z,4.00
2018-04-26T17:01:51.726Z,3.77
2018-04-26T17:04:20.965Z,4.00
2018-04-26T17:06:50.417Z,4.03
2018-04-26T17:09:19.708Z,4.23
2018-04-26T17:11:49.653Z,3.80
2018-04-26T17:14:19.129Z,4.20
2018-04-26T17:16:49.041Z,3.77
2018-04-26T17:19:19.354Z,3.80
2018-04-26T17:21:49.043Z,4.57
2018-04-26T17:24:18.359Z,3.83
2018-04-26T17:26:47.653Z,4.07
2018-04-26T17:29:18.569Z,4.07
2018-04-26T17:31:48.116Z,3.17
2018-04-26T17:34:18.012Z,4.47
2018-04-26T17:36:47.331Z,3.83
2018-04-26T17:39:16.602Z,3.53
2018-04-26T17:41:45.705Z,4.23
2018-04-26T17:44:15.874Z,3.60
2018-04-26T17:46:45.211Z,3.63
2018-04-26T17:49:14.554Z,3.80
2018-04-26T17:51:44.023Z,3.40
2018-04-26T17:54:16.202Z,3.87
2018-04-26T17:56:45.686Z,4.00
2018-04-26T17:59:15.497Z,4.30
2018-04-26T18:01:46.584Z,4.20
2018-04-26T18:04:15.920Z,3.83
2018-04-26T18:06:45.185Z,4.00
2018-04-26T18:09:14.571Z,3.77
2018-04-26T18:11:43.893Z,3.90
2018-04-26T18:14:13.977Z,3.83
2018-04-26T18:16:43.077Z,3.87
2018-04-26T18:19:12.372Z,3.80
2018-04-26T18:21:41.462Z,4.30
2018-04-26T18:24:11.353Z,3.77
2018-04-26T18:26:40.679Z,3.70
2018-04-26T18:29:09.952Z,3.57
2018-04-26T18:31:39.076Z,3.90
2018-04-26T18:34:08.407Z,3.73
2018-04-26T18:36:37.690Z,3.60
2018-04-26T18:39:07.788Z,4.60
2018-04-26T18:41:37.090Z,4.27
2018-04-26T18:44:06.390Z,4.10
2018-04-26T18:46:35.924Z,4.30
2018-04-26T18:49:05.184Z,4.43
2018-04-26T18:51:35.105Z,3.73
2018-04-26T18:54:04.220Z,3.70
2018-04-26T18:56:35.697Z,3.90
2018-04-26T18:59:05.065Z,3.63
2018-04-26T19:01:34.957Z,3.30
2018-04-26T19:04:04.353Z,3.27
2018-04-26T19:06:33.647Z,3.80
2018-04-26T19:09:02.930Z,3.50
2018-04-26T19:11:31.863Z,3.90
2018-04-26T19:14:01.157Z,3.33
2018-04-26T19:16:30.436Z,3.50
2018-04-26T19:18:59.681Z,3.70
2018-04-26T19:21:29.040Z,3.57
2018-04-26T19:23:58.668Z,3.50
2018-04-26T19:26:28.188Z,3.37
2018-04-26T19:28:57.579Z,3.70
2018-04-26T19:31:27.760Z,3.97
2018-04-26T19:33:57.265Z,3.50
2018-04-26T19:36:26.537Z,3.60
2018-04-26T19:38:56.226Z,4.40
2018-04-26T19:41:26.164Z,4.70
2018-04-26T19:43:55.616Z,4.50
2018-04-26T19:46:25.103Z,4.23
2018-04-26T19:48:54.553Z,4.60
2018-04-26T19:51:24.299Z,4.67
2018-04-26T19:53:53.817Z,4.33
2018-04-26T19:56:23.339Z,4.50
2018-04-26T19:58:53.697Z,4.20
2018-04-26T20:01:23.197Z,4.50
2018-04-26T20:03:52.457Z,4.23
2018-04-26T20:06:23.243Z,5.43
2018-04-26T20:08:52.540Z,4.73
2018-04-26T20:11:21.598Z,4.00
2018-04-26T20:13:50.856Z,4.20
2018-04-26T20:16:20.213Z,4.00
2018-04-26T20:18:49.273Z,3.70
2018-04-26T20:21:18.788Z,4.30
2018-04-26T20:23:48.119Z,3.53
2018-04-26T20:26:17.211Z,4.30
2018-04-26T20:28:46.316Z,4.80
2018-04-26T20:31:15.578Z,4.60
2018-04-26T20:33:44.843Z,4.23
2018-04-26T20:36:14.015Z,3.70
2018-04-26T20:38:43.069Z,4.70
2018-04-26T20:41:12.342Z,4.40
2018-04-26T20:43:41.673Z,4.40
2018-04-26T20:46:10.924Z,4.53
2018-04-26T20:48:43.347Z,4.63
2018-04-26T20:51:12.604Z,4.10
2018-04-26T20:53:41.938Z,4.00
2018-04-26T20:56:11.297Z,3.67
2018-04-26T20:58:40.513Z,4.83
2018-04-26T21:01:11.276Z,4.00
2018-04-26T21:03:41.360Z,4.17
2018-04-26T21:06:10.672Z,4.63
2018-04-26T21:08:39.952Z,3.93
2018-04-26T21:11:09.325Z,4.23
2018-04-26T21:13:38.572Z,3.67
2018-04-26T21:16:08.081Z,3.53
2018-04-26T21:18:37.157Z,4.10
2018-04-26T21:21:06.740Z,3.80
2018-04-26T21:23:36.060Z,4.07
2018-04-26T21:26:05.498Z,4.30
2018-04-26T21:28:35.524Z,3.53
2018-04-26T21:31:04.580Z,4.60
2018-04-26T21:33:33.907Z,3.70
2018-04-26T21:36:03.419Z,4.20
2018-04-26T21:38:32.909Z,4.20
2018-04-26T21:41:02.228Z,3.93
2018-04-26T21:43:32.195Z,4.43
2018-04-26T21:46:01.517Z,4.10
2018-04-26T21:48:30.833Z,4.20
2018-04-26T21:51:05.343Z,6.70
2018-04-26T21:53:40.716Z,7.30
2018-04-26T21:56:15.557Z,5.80
2018-04-26T21:58:50.267Z,5.40
2018-04-26T22:01:33.794Z,4.73
2018-04-26T22:04:08.988Z,4.67
2018-04-26T22:06:38.489Z,4.00
2018-04-26T22:09:08.000Z,4.30
2018-04-26T22:11:37.291Z,3.97
2018-04-26T22:14:06.417Z,4.10
2018-04-26T22:16:35.673Z,4.20
2018-04-26T22:19:05.011Z,4.57
2018-04-26T22:21:34.276Z,4.20
2018-04-26T22:24:03.591Z,3.40
2018-04-26T22:26:32.693Z,4.27
2018-04-26T22:29:01.896Z,4.33
2018-04-26T22:31:31.067Z,3.50
2018-04-26T22:34:00.456Z,3.63
2018-04-26T22:36:29.788Z,4.30
2018-04-26T22:38:58.999Z,3.90
2018-04-26T22:41:28.268Z,3.93
2018-04-26T22:43:57.570Z,3.37
2018-04-26T22:46:27.073Z,4.00
2018-04-26T22:48:56.809Z,3.93
2018-04-26T22:51:25.969Z,4.30
2018-04-26T22:53:55.010Z,4.30
2018-04-26T22:56:24.320Z,4.30
2018-04-26T22:58:53.632Z,4.10
2018-04-26T23:01:23.885Z,4.40
2018-04-26T23:03:53.828Z,3.87
2018-04-26T23:06:23.261Z,4.50
2018-04-26T23:08:52.556Z,3.83
2018-04-26T23:11:21.912Z,4.70
2018-04-26T23:13:51.325Z,4.30
2018-04-26T23:16:20.636Z,4.60
2018-04-26T23:18:50.299Z,3.90
2018-04-26T23:21:19.854Z,4.57
2018-04-26T23:23:49.361Z,4.30
2018-04-26T23:26:18.528Z,4.30
2018-04-26T23:28:47.974Z,4.37
2018-04-26T23:31:17.282Z,4.00
2018-04-26T23:33:46.333Z,4.53
2018-04-26T23:36:15.838Z,4.50
2018-04-26T23:38:44.911Z,4.53
2018-04-26T23:41:14.279Z,4.00
2018-04-26T23:43:43.595Z,4.50
2018-04-26T23:46:12.904Z,4.73
2018-04-26T23:48:42.253Z,4.90
2018-04-26T23:51:11.538Z,4.67
2018-04-26T23:53:41.003Z,4.63
2018-04-26T23:56:10.592Z,4.53
2018-04-26T23:58:40.011Z,3.90
